createdAt,value
2022-12-19T00:01:29.299Z,38.60
2022-12-19T00:06:43.808Z,35.90
2022-12-19T00:11:51.841Z,44.60
2022-12-19T00:16:58.915Z,31.00
2022-12-19T00:22:11.052Z,54.50
2022-12-19T00:27:18.503Z,41.60
2022-12-19T00:32:26.756Z,42.30
2022-12-19T00:37:33.789Z,34.60
2022-12-19T00:42:40.849Z,44.80
2022-12-19T00:47:49.012Z,41.80
2022-12-19T00:52:56.315Z,43.10
2022-12-19T00:58:03.381Z,36.00
2022-12-19T01:03:10.464Z,34.60
2022-12-19T01:08:20.591Z,31.30
2022-12-19T01:13:30.939Z,31.10
2022-12-19T01:18:38.437Z,30.60
2022-12-19T01:28:51.061Z,29.90
2022-12-19T01:34:00.161Z,28.10
2022-12-19T01:39:08.526Z,33.10
2022-12-19T01:44:15.640Z,32.40
2022-12-19T01:49:31.182Z,30.20
2022-12-19T01:54:42.233Z,22.50
2022-12-19T01:59:55.899Z,26.50
2022-12-19T02:05:04.684Z,26.00
2022-12-19T02:10:12.271Z,28.40
2022-12-19T02:20:53.628Z,23.80
2022-12-19T02:26:19.883Z,28.00
2022-12-19T02:31:30.823Z,31.60
2022-12-19T02:36:45.395Z,29.30
2022-12-19T02:41:59.482Z,27.70
2022-12-19T02:47:10.070Z,27.90
2022-12-19T02:52:47.436Z,25.90
2022-12-19T02:58:23.355Z,27.70
2022-12-19T03:03:37.541Z,27.70
2022-12-19T03:08:48.694Z,25.30
2022-12-19T03:14:02.045Z,32.20
2022-12-19T03:19:13.240Z,27.30
2022-12-19T03:24:21.255Z,27.60
2022-12-19T03:29:34.225Z,25.70
2022-12-19T03:34:46.388Z,21.50
2022-12-19T03:40:00.188Z,29.50
2022-12-19T03:45:10.342Z,31.40
2022-12-19T03:50:18.739Z,30.80
2022-12-19T03:55:32.839Z,22.10
2022-12-19T04:00:42.816Z,22.10
2022-12-19T04:05:51.989Z,23.10
2022-12-19T04:11:09.110Z,30.30
2022-12-19T04:16:24.879Z,26.80
2022-12-19T04:21:36.634Z,18.20
2022-12-19T04:26:46.322Z,25.10
2022-12-19T04:31:54.231Z,29.30
2022-12-19T04:37:02.562Z,20.20
2022-12-19T04:42:09.899Z,22.30
2022-12-19T04:47:17.262Z,18.00
2022-12-19T04:52:24.359Z,25.40
2022-12-19T04:57:33.599Z,26.60
2022-12-19T05:02:41.476Z,30.90
2022-12-19T05:07:48.870Z,25.70
2022-12-19T05:12:56.344Z,21.70
2022-12-19T05:23:16.789Z,27.80
2022-12-19T05:28:24.978Z,23.90
2022-12-19T05:33:34.580Z,32.00
2022-12-19T05:38:41.728Z,26.00
2022-12-19T05:43:52.936Z,29.60
2022-12-19T05:49:00.597Z,26.70
2022-12-19T05:54:08.244Z,26.20
2022-12-19T06:04:20.881Z,20.20
2022-12-19T06:09:28.278Z,24.90
2022-12-19T06:19:41.135Z,16.70
2022-12-19T06:24:48.409Z,29.00
2022-12-19T06:29:55.612Z,31.40
2022-12-19T06:35:04.802Z,22.40
2022-12-19T06:40:34.169Z,18.10
2022-12-19T06:45:41.314Z,26.70
2022-12-19T06:50:48.477Z,23.80
2022-12-19T07:01:04.016Z,21.50
2022-12-19T07:11:18.977Z,23.30
2022-12-19T07:21:35.002Z,20.70
2022-12-19T07:26:42.583Z,17.70
2022-12-19T07:31:52.658Z,23.80
2022-12-19T07:36:59.908Z,18.20
2022-12-19T07:42:07.435Z,20.50
2022-12-19T07:47:18.646Z,24.30
2022-12-19T07:52:25.727Z,25.90
2022-12-19T07:57:33.094Z,23.50
2022-12-19T08:02:40.514Z,21.30
2022-12-19T08:07:47.795Z,21.20
2022-12-19T08:12:55.220Z,23.10
2022-12-19T08:18:03.737Z,15.70
2022-12-19T08:23:18.905Z,25.70
2022-12-19T08:28:29.269Z,22.20
2022-12-19T08:33:43.691Z,22.40
2022-12-19T08:45:54.351Z,26.00
2022-12-19T08:51:04.329Z,25.80
2022-12-19T08:56:15.606Z,21.00
2022-12-19T09:01:24.181Z,30.90
2022-12-19T09:06:32.935Z,29.40
2022-12-19T09:11:47.592Z,23.00
2022-12-19T09:16:55.840Z,30.00
2022-12-19T09:22:06.411Z,31.40
2022-12-19T09:27:14.109Z,28.30
2022-12-19T09:32:22.226Z,29.30
2022-12-19T09:37:30.281Z,28.60
2022-12-19T09:42:48.483Z,31.00
2022-12-19T09:47:59.594Z,29.80
2022-12-19T09:53:14.602Z,28.20
2022-12-19T09:58:33.227Z,30.20
2022-12-19T10:03:45.122Z,35.70
2022-12-19T10:10:16.562Z,36.90
2022-12-19T10:14:38.219Z,32.10
2022-12-19T10:20:04.644Z,31.20
2022-12-19T10:25:27.924Z,35.70
2022-12-19T10:30:38.104Z,34.90
2022-12-19T10:35:49.438Z,35.40
2022-12-19T10:41:13.460Z,32.80
2022-12-19T10:46:26.914Z,34.30
2022-12-19T10:51:34.879Z,37.50
2022-12-19T10:56:42.006Z,31.80
2022-12-19T11:02:00.223Z,30.30
2022-12-19T11:07:21.795Z,39.50
2022-12-19T11:15:16.184Z,34.20
2022-12-19T11:26:19.620Z,38.00
2022-12-19T11:31:29.375Z,37.50
2022-12-19T11:44:43.514Z,39.40
2022-12-19T11:50:17.550Z,38.50
2022-12-19T11:55:27.966Z,39.30
2022-12-19T12:00:36.675Z,33.70
2022-12-19T12:05:48.278Z,37.90
2022-12-19T12:16:01.756Z,34.20
2022-12-19T12:29:02.418Z,35.40
2022-12-19T12:32:05.781Z,37.70
2022-12-19T12:41:20.759Z,29.20
2022-12-19T12:46:36.284Z,39.10
2022-12-19T12:51:44.865Z,40.20
2022-12-19T12:56:55.456Z,40.20
2022-12-19T13:02:16.634Z,42.40
2022-12-19T13:07:42.554Z,38.00
2022-12-19T13:13:09.278Z,33.70
2022-12-19T13:23:50.922Z,36.40
2022-12-19T13:34:20.389Z,29.80
2022-12-19T13:40:02.344Z,33.30
2022-12-19T13:45:08.792Z,38.20
2022-12-19T13:50:38.112Z,34.30
2022-12-19T13:55:45.448Z,41.60
2022-12-19T14:00:56.573Z,37.90
2022-12-19T14:06:22.836Z,32.10
2022-12-19T14:12:26.733Z,39.80
2022-12-19T14:17:10.493Z,38.50
2022-12-19T14:22:26.465Z,39.30
2022-12-19T14:28:20.605Z,34.40
2022-12-19T14:33:46.019Z,36.80
2022-12-19T14:39:20.789Z,31.80
2022-12-19T14:52:35.692Z,39.20
2022-12-19T14:54:05.505Z,37.90
2022-12-19T14:56:12.547Z,38.70
2022-12-19T15:07:08.388Z,39.70
2022-12-19T15:14:49.311Z,30.80
2022-12-19T15:17:48.140Z,42.10
2022-12-19T15:22:55.372Z,46.40
2022-12-19T15:28:03.234Z,61.50
2022-12-19T15:38:20.887Z,38.30
2022-12-19T15:44:01.875Z,37.50
2022-12-19T15:48:55.147Z,40.10
2022-12-19T15:54:38.388Z,47.60
2022-12-19T15:59:37.770Z,45.60
2022-12-19T16:04:45.902Z,45.30
2022-12-19T16:09:53.232Z,39.30
2022-12-19T16:15:02.772Z,44.50
2022-12-19T16:20:18.831Z,42.00
2022-12-19T16:25:33.563Z,44.30
2022-12-19T16:30:43.584Z,43.30
2022-12-19T16:36:07.556Z,38.20
2022-12-19T16:41:28.309Z,25.40
2022-12-19T16:46:35.853Z,43.70
2022-12-19T16:51:43.487Z,39.80
2022-12-19T16:56:52.926Z,45.40
2022-12-19T17:02:00.938Z,47.50
2022-12-19T17:07:13.175Z,44.50
2022-12-19T17:12:21.591Z,44.80
2022-12-19T17:17:28.754Z,42.60
2022-12-19T17:22:35.910Z,43.70
2022-12-19T17:27:43.993Z,42.60
2022-12-19T17:32:56.323Z,45.80
2022-12-19T17:38:06.210Z,46.80
2022-12-19T17:43:14.757Z,49.10
2022-12-19T17:48:28.897Z,49.90
2022-12-19T17:53:39.754Z,46.90
2022-12-19T17:58:48.749Z,46.50
2022-12-19T18:03:59.246Z,48.60
2022-12-19T18:09:10.242Z,47.50
2022-12-19T18:14:18.928Z,43.90
2022-12-19T18:19:30.770Z,44.60
2022-12-19T18:24:42.000Z,44.40
2022-12-19T18:29:50.630Z,42.50
2022-12-19T18:34:59.511Z,45.90
2022-12-19T18:40:19.539Z,43.70
2022-12-19T18:45:36.152Z,41.80
2022-12-19T18:50:51.694Z,44.20
2022-12-19T18:56:00.328Z,44.20
2022-12-19T19:01:15.838Z,43.50
2022-12-19T19:06:25.959Z,41.20
2022-12-19T19:11:34.147Z,50.80
2022-12-19T19:16:41.798Z,42.80
2022-12-19T19:21:50.257Z,44.90
2022-12-19T19:26:57.455Z,49.40
2022-12-19T19:32:04.562Z,50.40
2022-12-19T19:37:14.965Z,56.30
2022-12-19T19:42:22.049Z,56.30
2022-12-19T19:47:32.410Z,49.40
2022-12-19T19:52:40.463Z,45.80
2022-12-19T20:02:53.443Z,47.20
2022-12-19T20:08:00.685Z,53.60
2022-12-19T20:13:07.729Z,48.90
2022-12-19T20:18:15.323Z,47.60
2022-12-19T20:23:22.456Z,43.90
2022-12-19T20:28:30.135Z,46.60
2022-12-19T20:33:37.474Z,44.80
2022-12-19T20:38:45.119Z,52.30
2022-12-19T20:43:53.380Z,47.40
2022-12-19T20:49:01.423Z,41.30
2022-12-19T20:54:13.115Z,47.50
2022-12-19T20:59:20.853Z,40.60
2022-12-19T21:04:29.596Z,41.80
2022-12-19T21:09:37.318Z,43.90
2022-12-19T21:14:44.817Z,42.00
2022-12-19T21:19:52.339Z,38.80
2022-12-19T21:25:00.603Z,39.10
2022-12-19T21:30:12.301Z,33.40
2022-12-19T21:35:19.759Z,36.90
2022-12-19T21:40:27.207Z,39.50
2022-12-19T21:45:34.627Z,40.60
2022-12-19T21:50:41.917Z,39.60
2022-12-19T21:55:49.294Z,37.10
2022-12-19T22:01:18.683Z,38.00
2022-12-19T22:06:33.573Z,38.70
2022-12-19T22:11:59.937Z,35.70
2022-12-19T22:17:08.117Z,40.60
2022-12-19T22:22:15.342Z,38.50
2022-12-19T22:27:22.585Z,37.00
2022-12-19T22:32:30.914Z,35.70
2022-12-19T22:37:38.224Z,30.50
2022-12-19T22:42:45.580Z,32.60
2022-12-19T22:47:52.863Z,33.10
2022-12-19T22:53:00.477Z,35.70
2022-12-19T22:58:08.739Z,34.60
2022-12-19T23:03:19.273Z,30.10
2022-12-19T23:08:26.913Z,30.70
2022-12-19T23:13:34.185Z,30.60
2022-12-19T23:18:42.435Z,29.20
2022-12-19T23:23:52.064Z,34.50
2022-12-19T23:29:01.209Z,34.20
2022-12-19T23:34:08.495Z,32.80
2022-12-19T23:39:15.760Z,30.50
2022-12-19T23:44:22.977Z,30.30
2022-12-19T23:49:30.071Z,31.40
2022-12-19T23:54:37.405Z,30.50
2022-12-19T23:59:44.430Z,34.30
